sensor_id;sensor_type;location;lat;lon;timestamp;temperature;humidity
35668;DHT22;22158;59.280;17.806;2023-11-21T00:01:45;0.30;99.90
35668;DHT22;22158;59.280;17.806;2023-11-21T00:04:11;0.30;99.90
35668;DHT22;22158;59.280;17.806;2023-11-21T00:06:36;0.30;99.90
35668;DHT22;22158;59.280;17.806;2023-11-21T00:09:02;0.30;99.90
35668;DHT22;22158;59.280;17.806;2023-11-21T00:11:28;0.30;99.90
35668;DHT22;22158;59.280;17.806;2023-11-21T00:13:54;0.30;99.90
35668;DHT22;22158;59.280;17.806;2023-11-21T00:16:20;0.30;99.90
35668;DHT22;22158;59.280;17.806;2023-11-21T00:18:47;0.30;99.90
35668;DHT22;22158;59.280;17.806;2023-11-21T00:21:13;0.40;99.90
35668;DHT22;22158;59.280;17.806;2023-11-21T00:23:38;0.40;99.90
35668;DHT22;22158;59.280;17.806;2023-11-21T00:26:04;0.40;99.90
35668;DHT22;22158;59.280;17.806;2023-11-21T00:28:30;0.40;99.90
35668;DHT22;22158;59.280;17.806;2023-11-21T00:30:55;0.50;99.90
35668;DHT22;22158;59.280;17.806;2023-11-21T00:33:21;0.50;99.90
35668;DHT22;22158;59.280;17.806;2023-11-21T00:35:46;0.50;99.90
35668;DHT22;22158;59.280;17.806;2023-11-21T00:38:12;0.50;99.90
35668;DHT22;22158;59.280;17.806;2023-11-21T00:40:37;0.50;99.90
35668;DHT22;22158;59.280;17.806;2023-11-21T00:43:03;0.60;99.90
35668;DHT22;22158;59.280;17.806;2023-11-21T00:45:29;0.60;99.90
35668;DHT22;22158;59.280;17.806;2023-11-21T00:47:54;0.60;99.90
35668;DHT22;22158;59.280;17.806;2023-11-21T00:50:21;0.60;99.90
35668;DHT22;22158;59.280;17.806;2023-11-21T00:52:47;0.60;99.90
35668;DHT22;22158;59.280;17.806;2023-11-21T00:55:13;0.60;99.90
35668;DHT22;22158;59.280;17.806;2023-11-21T00:57:38;0.70;99.90
35668;DHT22;22158;59.280;17.806;2023-11-21T01:00:05;0.70;99.90
35668;DHT22;22158;59.280;17.806;2023-11-21T01:02:43;0.70;99.90
35668;DHT22;22158;59.280;17.806;2023-11-21T01:05:09;0.70;99.90
35668;DHT22;22158;59.280;17.806;2023-11-21T01:07:36;0.70;99.90
35668;DHT22;22158;59.280;17.806;2023-11-21T01:10:03;0.70;99.90
35668;DHT22;22158;59.280;17.806;2023-11-21T01:12:31;0.70;99.90
35668;DHT22;22158;59.280;17.806;2023-11-21T01:14:56;0.70;99.90
35668;DHT22;22158;59.280;17.806;2023-11-21T01:17:25;0.70;99.90
35668;DHT22;22158;59.280;17.806;2023-11-21T01:19:51;0.70;99.90
35668;DHT22;22158;59.280;17.806;2023-11-21T01:22:16;0.70;99.90
35668;DHT22;22158;59.280;17.806;2023-11-21T01:24:43;0.80;99.90
35668;DHT22;22158;59.280;17.806;2023-11-21T01:27:09;0.70;99.90
35668;DHT22;22158;59.280;17.806;2023-11-21T01:29:34;0.80;99.90
35668;DHT22;22158;59.280;17.806;2023-11-21T01:32:02;0.80;99.90
35668;DHT22;22158;59.280;17.806;2023-11-21T01:34:28;0.80;99.90
35668;DHT22;22158;59.280;17.806;2023-11-21T01:36:53;0.80;99.90
35668;DHT22;22158;59.280;17.806;2023-11-21T01:39:19;0.80;99.90
35668;DHT22;22158;59.280;17.806;2023-11-21T01:41:49;0.80;99.90
35668;DHT22;22158;59.280;17.806;2023-11-21T01:44:15;0.80;99.90
35668;DHT22;22158;59.280;17.806;2023-11-21T01:46:42;0.80;99.90
35668;DHT22;22158;59.280;17.806;2023-11-21T01:49:09;0.90;99.90
35668;DHT22;22158;59.280;17.806;2023-11-21T01:51:41;0.90;99.90
35668;DHT22;22158;59.280;17.806;2023-11-21T01:54:09;0.90;99.90
35668;DHT22;22158;59.280;17.806;2023-11-21T01:56:34;0.90;99.90
35668;DHT22;22158;59.280;17.806;2023-11-21T01:59:00;0.90;99.90
35668;DHT22;22158;59.280;17.806;2023-11-21T02:01:26;0.90;99.90
35668;DHT22;22158;59.280;17.806;2023-11-21T02:03:51;0.90;99.90
35668;DHT22;22158;59.280;17.806;2023-11-21T02:06:18;0.90;99.90
35668;DHT22;22158;59.280;17.806;2023-11-21T02:08:44;0.90;99.90
35668;DHT22;22158;59.280;17.806;2023-11-21T02:11:10;0.90;99.90
35668;DHT22;22158;59.280;17.806;2023-11-21T02:13:38;0.90;99.90
35668;DHT22;22158;59.280;17.806;2023-11-21T02:16:09;0.90;99.90
35668;DHT22;22158;59.280;17.806;2023-11-21T02:18:35;0.90;99.90
35668;DHT22;22158;59.280;17.806;2023-11-21T02:21:04;1.00;99.90
35668;DHT22;22158;59.280;17.806;2023-11-21T02:23:30;1.00;99.90
35668;DHT22;22158;59.280;17.806;2023-11-21T02:25:55;1.00;99.90
35668;DHT22;22158;59.280;17.806;2023-11-21T02:28:21;1.00;99.90
35668;DHT22;22158;59.280;17.806;2023-11-21T02:30:51;0.90;99.90
35668;DHT22;22158;59.280;17.806;2023-11-21T02:33:21;1.00;99.90
35668;DHT22;22158;59.280;17.806;2023-11-21T02:35:47;0.90;99.90
35668;DHT22;22158;59.280;17.806;2023-11-21T02:38:12;0.90;99.90
35668;DHT22;22158;59.280;17.806;2023-11-21T02:40:39;0.90;99.90
35668;DHT22;22158;59.280;17.806;2023-11-21T02:43:04;0.90;99.90
35668;DHT22;22158;59.280;17.806;2023-11-21T02:45:31;0.90;99.90
35668;DHT22;22158;59.280;17.806;2023-11-21T02:47:57;0.90;99.90
35668;DHT22;22158;59.280;17.806;2023-11-21T02:50:23;0.90;99.90
35668;DHT22;22158;59.280;17.806;2023-11-21T02:52:49;0.90;99.90
35668;DHT22;22158;59.280;17.806;2023-11-21T02:55:15;0.90;99.90
35668;DHT22;22158;59.280;17.806;2023-11-21T02:57:41;0.90;99.90
35668;DHT22;22158;59.280;17.806;2023-11-21T03:00:07;0.90;99.90
35668;DHT22;22158;59.280;17.806;2023-11-21T03:02:33;0.90;99.90
35668;DHT22;22158;59.280;17.806;2023-11-21T03:05:05;0.80;99.90
35668;DHT22;22158;59.280;17.806;2023-11-21T03:07:31;0.90;99.90
35668;DHT22;22158;59.280;17.806;2023-11-21T03:09:56;0.80;99.90
35668;DHT22;22158;59.280;17.806;2023-11-21T03:12:23;0.80;99.90
35668;DHT22;22158;59.280;17.806;2023-11-21T03:14:48;0.90;99.90
35668;DHT22;22158;59.280;17.806;2023-11-21T03:17:14;0.80;99.90
35668;DHT22;22158;59.280;17.806;2023-11-21T03:19:41;0.90;99.90
35668;DHT22;22158;59.280;17.806;2023-11-21T03:22:07;0.90;99.90
35668;DHT22;22158;59.280;17.806;2023-11-21T03:24:34;0.90;99.90
35668;DHT22;22158;59.280;17.806;2023-11-21T03:26:59;0.90;99.90
35668;DHT22;22158;59.280;17.806;2023-11-21T03:29:25;0.90;99.90
35668;DHT22;22158;59.280;17.806;2023-11-21T03:31:51;0.90;99.90
35668;DHT22;22158;59.280;17.806;2023-11-21T03:34:23;0.90;99.90
35668;DHT22;22158;59.280;17.806;2023-11-21T03:36:49;0.90;99.90
35668;DHT22;22158;59.280;17.806;2023-11-21T03:39:15;0.90;99.90
35668;DHT22;22158;59.280;17.806;2023-11-21T03:41:40;0.90;99.90
35668;DHT22;22158;59.280;17.806;2023-11-21T03:44:06;1.00;99.90
35668;DHT22;22158;59.280;17.806;2023-11-21T03:46:32;1.00;99.90
35668;DHT22;22158;59.280;17.806;2023-11-21T03:48:57;1.00;99.90
35668;DHT22;22158;59.280;17.806;2023-11-21T03:51:23;1.00;99.90
35668;DHT22;22158;59.280;17.806;2023-11-21T03:53:48;1.00;99.90
35668;DHT22;22158;59.280;17.806;2023-11-21T03:56:14;1.00;99.90
35668;DHT22;22158;59.280;17.806;2023-11-21T03:58:40;1.00;99.90
35668;DHT22;22158;59.280;17.806;2023-11-21T04:01:05;1.00;99.90
35668;DHT22;22158;59.280;17.806;2023-11-21T04:03:31;1.00;99.90
35668;DHT22;22158;59.280;17.806;2023-11-21T04:05:56;1.00;99.90
35668;DHT22;22158;59.280;17.806;2023-11-21T04:08:22;1.00;99.90
35668;DHT22;22158;59.280;17.806;2023-11-21T04:10:48;1.00;99.90
35668;DHT22;22158;59.280;17.806;2023-11-21T04:13:14;1.10;99.90
35668;DHT22;22158;59.280;17.806;2023-11-21T04:15:39;1.10;99.90
35668;DHT22;22158;59.280;17.806;2023-11-21T04:18:05;1.00;99.90
35668;DHT22;22158;59.280;17.806;2023-11-21T04:20:30;1.10;99.90
35668;DHT22;22158;59.280;17.806;2023-11-21T04:22:56;1.00;99.90
35668;DHT22;22158;59.280;17.806;2023-11-21T04:25:22;1.10;99.90
35668;DHT22;22158;59.280;17.806;2023-11-21T04:27:49;1.10;99.90
35668;DHT22;22158;59.280;17.806;2023-11-21T04:30:14;1.10;99.90
35668;DHT22;22158;59.280;17.806;2023-11-21T04:32:40;1.20;99.90
35668;DHT22;22158;59.280;17.806;2023-11-21T04:35:07;1.20;99.90
35668;DHT22;22158;59.280;17.806;2023-11-21T04:37:34;1.10;99.90
35668;DHT22;22158;59.280;17.806;2023-11-21T04:39:59;1.20;99.90
35668;DHT22;22158;59.280;17.806;2023-11-21T04:42:25;1.20;99.90
35668;DHT22;22158;59.280;17.806;2023-11-21T04:44:50;1.20;99.90
35668;DHT22;22158;59.280;17.806;2023-11-21T04:47:18;1.20;99.90
35668;DHT22;22158;59.280;17.806;2023-11-21T04:49:46;1.20;99.90
35668;DHT22;22158;59.280;17.806;2023-11-21T04:52:12;1.20;99.90
35668;DHT22;22158;59.280;17.806;2023-11-21T04:54:38;1.20;99.90
35668;DHT22;22158;59.280;17.806;2023-11-21T04:57:05;1.20;99.90
35668;DHT22;22158;59.280;17.806;2023-11-21T04:59:33;1.20;99.90
35668;DHT22;22158;59.280;17.806;2023-11-21T05:01:58;1.20;99.90
35668;DHT22;22158;59.280;17.806;2023-11-21T05:04:25;1.20;99.90
35668;DHT22;22158;59.280;17.806;2023-11-21T05:06:51;1.20;99.90
35668;DHT22;22158;59.280;17.806;2023-11-21T05:09:16;1.20;99.90
35668;DHT22;22158;59.280;17.806;2023-11-21T05:11:43;1.30;99.90
35668;DHT22;22158;59.280;17.806;2023-11-21T05:14:08;1.30;99.90
35668;DHT22;22158;59.280;17.806;2023-11-21T05:16:34;1.20;99.90
35668;DHT22;22158;59.280;17.806;2023-11-21T05:19:00;1.20;99.90
35668;DHT22;22158;59.280;17.806;2023-11-21T05:21:27;1.30;99.90
35668;DHT22;22158;59.280;17.806;2023-11-21T05:23:52;1.30;99.90
35668;DHT22;22158;59.280;17.806;2023-11-21T05:26:18;1.30;99.90
35668;DHT22;22158;59.280;17.806;2023-11-21T05:28:43;1.20;99.90
35668;DHT22;22158;59.280;17.806;2023-11-21T05:31:09;1.20;99.90
35668;DHT22;22158;59.280;17.806;2023-11-21T05:33:36;1.30;99.90
35668;DHT22;22158;59.280;17.806;2023-11-21T05:36:02;1.30;99.90
35668;DHT22;22158;59.280;17.806;2023-11-21T05:38:27;1.20;99.90
35668;DHT22;22158;59.280;17.806;2023-11-21T05:40:53;1.30;99.90
35668;DHT22;22158;59.280;17.806;2023-11-21T05:43:19;1.20;99.90
35668;DHT22;22158;59.280;17.806;2023-11-21T05:45:45;1.30;99.90
35668;DHT22;22158;59.280;17.806;2023-11-21T05:48:10;1.20;99.90
35668;DHT22;22158;59.280;17.806;2023-11-21T05:50:36;1.20;99.90
35668;DHT22;22158;59.280;17.806;2023-11-21T05:53:03;1.20;99.90
35668;DHT22;22158;59.280;17.806;2023-11-21T05:55:29;1.20;99.90
35668;DHT22;22158;59.280;17.806;2023-11-21T05:57:54;1.20;99.90
35668;DHT22;22158;59.280;17.806;2023-11-21T06:00:20;1.20;99.90
35668;DHT22;22158;59.280;17.806;2023-11-21T06:02:51;1.30;99.90
35668;DHT22;22158;59.280;17.806;2023-11-21T06:05:19;1.20;99.90
35668;DHT22;22158;59.280;17.806;2023-11-21T06:07:45;1.20;99.90
35668;DHT22;22158;59.280;17.806;2023-11-21T06:10:12;1.20;99.90
35668;DHT22;22158;59.280;17.806;2023-11-21T06:12:40;1.20;99.90
35668;DHT22;22158;59.280;17.806;2023-11-21T06:15:08;1.30;99.90
35668;DHT22;22158;59.280;17.806;2023-11-21T06:17:35;1.30;99.90
35668;DHT22;22158;59.280;17.806;2023-11-21T06:20:06;1.20;99.90
35668;DHT22;22158;59.280;17.806;2023-11-21T06:22:38;1.30;99.90
35668;DHT22;22158;59.280;17.806;2023-11-21T06:25:05;1.20;99.90
35668;DHT22;22158;59.280;17.806;2023-11-21T06:27:37;1.20;99.90
35668;DHT22;22158;59.280;17.806;2023-11-21T06:30:03;1.20;99.90
35668;DHT22;22158;59.280;17.806;2023-11-21T06:32:29;1.20;99.90
35668;DHT22;22158;59.280;17.806;2023-11-21T06:34:55;1.20;99.90
35668;DHT22;22158;59.280;17.806;2023-11-21T06:37:21;1.20;99.90
35668;DHT22;22158;59.280;17.806;2023-11-21T06:39:49;1.30;99.90
35668;DHT22;22158;59.280;17.806;2023-11-21T06:42:14;1.20;99.90
35668;DHT22;22158;59.280;17.806;2023-11-21T06:44:40;1.30;99.90
35668;DHT22;22158;59.280;17.806;2023-11-21T06:47:07;1.30;99.90
35668;DHT22;22158;59.280;17.806;2023-11-21T06:49:32;1.30;99.90
35668;DHT22;22158;59.280;17.806;2023-11-21T06:51:58;1.30;99.90
35668;DHT22;22158;59.280;17.806;2023-11-21T06:54:26;1.30;99.90
35668;DHT22;22158;59.280;17.806;2023-11-21T06:56:52;1.30;99.90
35668;DHT22;22158;59.280;17.806;2023-11-21T06:59:18;1.30;99.90
35668;DHT22;22158;59.280;17.806;2023-11-21T07:01:44;1.30;99.90
35668;DHT22;22158;59.280;17.806;2023-11-21T07:04:10;1.40;99.90
35668;DHT22;22158;59.280;17.806;2023-11-21T07:06:35;1.30;99.90
35668;DHT22;22158;59.280;17.806;2023-11-21T07:09:01;1.30;99.90
35668;DHT22;22158;59.280;17.806;2023-11-21T07:11:28;1.40;99.90
35668;DHT22;22158;59.280;17.806;2023-11-21T07:13:54;1.30;99.90
35668;DHT22;22158;59.280;17.806;2023-11-21T07:16:19;1.40;99.90
35668;DHT22;22158;59.280;17.806;2023-11-21T07:18:45;1.30;99.90
35668;DHT22;22158;59.280;17.806;2023-11-21T07:21:11;1.40;99.90
35668;DHT22;22158;59.280;17.806;2023-11-21T07:23:40;1.30;99.90
35668;DHT22;22158;59.280;17.806;2023-11-21T07:26:06;1.40;99.90
35668;DHT22;22158;59.280;17.806;2023-11-21T07:28:35;1.30;99.90
35668;DHT22;22158;59.280;17.806;2023-11-21T07:31:01;1.30;99.90
35668;DHT22;22158;59.280;17.806;2023-11-21T07:33:27;1.30;99.90
35668;DHT22;22158;59.280;17.806;2023-11-21T07:35:52;1.30;99.90
35668;DHT22;22158;59.280;17.806;2023-11-21T07:38:18;1.30;99.90
35668;DHT22;22158;59.280;17.806;2023-11-21T07:40:43;1.30;99.90
35668;DHT22;22158;59.280;17.806;2023-11-21T07:43:09;1.30;99.90
35668;DHT22;22158;59.280;17.806;2023-11-21T07:45:36;1.30;99.90
35668;DHT22;22158;59.280;17.806;2023-11-21T07:48:01;1.30;99.90
35668;DHT22;22158;59.280;17.806;2023-11-21T07:50:29;1.30;99.90
35668;DHT22;22158;59.280;17.806;2023-11-21T07:52:55;1.20;99.90
35668;DHT22;22158;59.280;17.806;2023-11-21T07:55:20;1.20;99.90
35668;DHT22;22158;59.280;17.806;2023-11-21T07:57:46;1.20;99.90
35668;DHT22;22158;59.280;17.806;2023-11-21T08:00:12;1.20;99.90
35668;DHT22;22158;59.280;17.806;2023-11-21T08:02:40;1.20;99.90
35668;DHT22;22158;59.280;17.806;2023-11-21T08:05:11;1.20;99.90
35668;DHT22;22158;59.280;17.806;2023-11-21T08:07:37;1.20;99.90
35668;DHT22;22158;59.280;17.806;2023-11-21T08:10:03;1.30;99.90
35668;DHT22;22158;59.280;17.806;2023-11-21T08:12:30;1.20;99.90
35668;DHT22;22158;59.280;17.806;2023-11-21T08:14:56;1.30;99.90
35668;DHT22;22158;59.280;17.806;2023-11-21T08:17:21;1.30;99.90
35668;DHT22;22158;59.280;17.806;2023-11-21T08:19:47;1.30;99.90
35668;DHT22;22158;59.280;17.806;2023-11-21T08:22:15;1.30;99.90
35668;DHT22;22158;59.280;17.806;2023-11-21T08:24:43;1.30;99.90
35668;DHT22;22158;59.280;17.806;2023-11-21T08:27:09;1.30;99.90
35668;DHT22;22158;59.280;17.806;2023-11-21T08:29:34;1.40;99.90
35668;DHT22;22158;59.280;17.806;2023-11-21T08:32:02;1.30;99.90
35668;DHT22;22158;59.280;17.806;2023-11-21T08:34:27;1.30;99.90
35668;DHT22;22158;59.280;17.806;2023-11-21T08:36:54;1.40;99.90
35668;DHT22;22158;59.280;17.806;2023-11-21T08:39:20;1.30;99.90
35668;DHT22;22158;59.280;17.806;2023-11-21T08:41:49;1.30;99.90
35668;DHT22;22158;59.280;17.806;2023-11-21T08:44:16;1.30;99.90
35668;DHT22;22158;59.280;17.806;2023-11-21T08:46:43;1.30;99.90
35668;DHT22;22158;59.280;17.806;2023-11-21T08:49:11;1.30;99.90
35668;DHT22;22158;59.280;17.806;2023-11-21T08:51:37;1.30;99.90
35668;DHT22;22158;59.280;17.806;2023-11-21T08:54:03;1.30;99.90
35668;DHT22;22158;59.280;17.806;2023-11-21T08:56:30;1.30;99.90
35668;DHT22;22158;59.280;17.806;2023-11-21T08:58:56;1.30;99.90
35668;DHT22;22158;59.280;17.806;2023-11-21T09:01:22;1.30;99.90
35668;DHT22;22158;59.280;17.806;2023-11-21T09:03:48;1.40;99.90
35668;DHT22;22158;59.280;17.806;2023-11-21T09:06:15;1.40;99.90
35668;DHT22;22158;59.280;17.806;2023-11-21T09:08:41;1.40;99.90
35668;DHT22;22158;59.280;17.806;2023-11-21T09:11:07;1.40;99.90
35668;DHT22;22158;59.280;17.806;2023-11-21T09:13:33;1.40;99.90
35668;DHT22;22158;59.280;17.806;2023-11-21T09:16:00;1.40;99.90
35668;DHT22;22158;59.280;17.806;2023-11-21T09:18:25;1.30;99.90
35668;DHT22;22158;59.280;17.806;2023-11-21T09:20:51;1.30;99.90
35668;DHT22;22158;59.280;17.806;2023-11-21T09:23:16;1.30;99.90
35668;DHT22;22158;59.280;17.806;2023-11-21T09:25:42;1.30;99.90
35668;DHT22;22158;59.280;17.806;2023-11-21T09:28:11;1.30;99.90
35668;DHT22;22158;59.280;17.806;2023-11-21T09:30:37;1.20;99.90
35668;DHT22;22158;59.280;17.806;2023-11-21T09:33:03;1.20;99.90
35668;DHT22;22158;59.280;17.806;2023-11-21T09:35:33;1.20;99.90
35668;DHT22;22158;59.280;17.806;2023-11-21T09:37:59;1.20;99.90
35668;DHT22;22158;59.280;17.806;2023-11-21T09:40:27;1.20;99.90
35668;DHT22;22158;59.280;17.806;2023-11-21T09:42:55;1.20;99.90
35668;DHT22;22158;59.280;17.806;2023-11-21T09:45:28;1.20;99.90
35668;DHT22;22158;59.280;17.806;2023-11-21T09:47:55;1.20;99.90
35668;DHT22;22158;59.280;17.806;2023-11-21T09:50:21;1.20;99.90
35668;DHT22;22158;59.280;17.806;2023-11-21T09:53:17;1.20;99.90
35668;DHT22;22158;59.280;17.806;2023-11-21T09:55:45;1.30;99.90
35668;DHT22;22158;59.280;17.806;2023-11-21T09:58:11;1.30;99.90
35668;DHT22;22158;59.280;17.806;2023-11-21T10:00:44;1.40;99.90
35668;DHT22;22158;59.280;17.806;2023-11-21T10:03:10;1.40;99.90
35668;DHT22;22158;59.280;17.806;2023-11-21T10:05:37;1.40;99.90
35668;DHT22;22158;59.280;17.806;2023-11-21T10:08:13;1.50;99.90
35668;DHT22;22158;59.280;17.806;2023-11-21T10:10:44;1.50;99.90
35668;DHT22;22158;59.280;17.806;2023-11-21T10:13:15;1.60;99.90
35668;DHT22;22158;59.280;17.806;2023-11-21T10:15:43;1.50;99.90
35668;DHT22;22158;59.280;17.806;2023-11-21T10:18:14;1.60;99.90
35668;DHT22;22158;59.280;17.806;2023-11-21T10:20:41;1.60;99.90
35668;DHT22;22158;59.280;17.806;2023-11-21T10:23:07;1.60;99.90
35668;DHT22;22158;59.280;17.806;2023-11-21T10:25:37;1.60;99.90
35668;DHT22;22158;59.280;17.806;2023-11-21T10:28:03;1.70;99.90
35668;DHT22;22158;59.280;17.806;2023-11-21T10:30:36;1.70;99.90
35668;DHT22;22158;59.280;17.806;2023-11-21T10:33:03;1.70;99.90
35668;DHT22;22158;59.280;17.806;2023-11-21T10:35:49;1.70;99.90
35668;DHT22;22158;59.280;17.806;2023-11-21T10:38:21;1.70;99.90
35668;DHT22;22158;59.280;17.806;2023-11-21T10:40:49;1.70;99.90
35668;DHT22;22158;59.280;17.806;2023-11-21T10:43:15;1.70;99.90
35668;DHT22;22158;59.280;17.806;2023-11-21T10:45:42;1.70;99.90
35668;DHT22;22158;59.280;17.806;2023-11-21T10:48:09;1.70;99.90
35668;DHT22;22158;59.280;17.806;2023-11-21T10:50:46;1.60;99.90
35668;DHT22;22158;59.280;17.806;2023-11-21T10:53:12;1.70;99.90
35668;DHT22;22158;59.280;17.806;2023-11-21T10:55:40;1.70;99.90
35668;DHT22;22158;59.280;17.806;2023-11-21T10:58:07;1.60;99.90
35668;DHT22;22158;59.280;17.806;2023-11-21T11:00:34;1.60;99.90
35668;DHT22;22158;59.280;17.806;2023-11-21T11:03:01;1.60;99.90
35668;DHT22;22158;59.280;17.806;2023-11-21T11:05:29;1.60;99.90
35668;DHT22;22158;59.280;17.806;2023-11-21T11:08:05;1.60;99.90
35668;DHT22;22158;59.280;17.806;2023-11-21T11:10:31;1.60;99.90
35668;DHT22;22158;59.280;17.806;2023-11-21T11:12:58;1.60;99.90
35668;DHT22;22158;59.280;17.806;2023-11-21T11:15:25;1.60;99.90
35668;DHT22;22158;59.280;17.806;2023-11-21T11:17:52;1.60;99.90
35668;DHT22;22158;59.280;17.806;2023-11-21T11:20:27;1.60;99.90
35668;DHT22;22158;59.280;17.806;2023-11-21T11:26:05;1.70;99.90
35668;DHT22;22158;59.280;17.806;2023-11-21T11:28:55;1.70;99.90
35668;DHT22;22158;59.280;17.806;2023-11-21T11:31:37;1.70;99.90
35668;DHT22;22158;59.280;17.806;2023-11-21T11:36:53;1.60;99.90
35668;DHT22;22158;59.280;17.806;2023-11-21T11:39:31;1.60;99.90
35668;DHT22;22158;59.280;17.806;2023-11-21T11:42:07;1.60;99.90
35668;DHT22;22158;59.280;17.806;2023-11-21T11:44:47;1.60;99.90
35668;DHT22;22158;59.280;17.806;2023-11-21T11:47:27;1.60;99.90
35668;DHT22;22158;59.280;17.806;2023-11-21T11:52:43;1.60;99.90
35668;DHT22;22158;59.280;17.806;2023-11-21T11:55:13;1.60;99.90
35668;DHT22;22158;59.280;17.806;2023-11-21T11:57:42;1.50;99.90
35668;DHT22;22158;59.280;17.806;2023-11-21T12:03:01;1.60;99.90
35668;DHT22;22158;59.280;17.806;2023-11-21T12:05:31;1.60;99.90
35668;DHT22;22158;59.280;17.806;2023-11-21T12:08:00;1.60;99.90
35668;DHT22;22158;59.280;17.806;2023-11-21T12:10:28;1.60;99.90
35668;DHT22;22158;59.280;17.806;2023-11-21T12:13:01;1.60;99.90
35668;DHT22;22158;59.280;17.806;2023-11-21T12:15:28;1.60;99.90
35668;DHT22;22158;59.280;17.806;2023-11-21T12:17:57;1.60;99.90
35668;DHT22;22158;59.280;17.806;2023-11-21T12:20:25;1.60;99.90
35668;DHT22;22158;59.280;17.806;2023-11-21T12:22:53;1.60;99.90
35668;DHT22;22158;59.280;17.806;2023-11-21T12:25:24;1.60;99.90
35668;DHT22;22158;59.280;17.806;2023-11-21T12:27:53;1.60;99.90
35668;DHT22;22158;59.280;17.806;2023-11-21T12:30:20;1.60;99.90
35668;DHT22;22158;59.280;17.806;2023-11-21T12:32:52;1.50;99.90
35668;DHT22;22158;59.280;17.806;2023-11-21T12:35:22;1.50;99.90
35668;DHT22;22158;59.280;17.806;2023-11-21T12:37:48;1.50;99.90
35668;DHT22;22158;59.280;17.806;2023-11-21T12:40:15;1.50;99.90
35668;DHT22;22158;59.280;17.806;2023-11-21T12:42:42;1.50;99.90
35668;DHT22;22158;59.280;17.806;2023-11-21T12:45:25;1.50;99.90
35668;DHT22;22158;59.280;17.806;2023-11-21T12:50:25;1.50;99.90
35668;DHT22;22158;59.280;17.806;2023-11-21T12:52:58;1.50;99.90
35668;DHT22;22158;59.280;17.806;2023-11-21T12:55:24;1.50;99.90
35668;DHT22;22158;59.280;17.806;2023-11-21T12:57:53;1.50;99.90
35668;DHT22;22158;59.280;17.806;2023-11-21T13:00:26;1.60;99.90
35668;DHT22;22158;59.280;17.806;2023-11-21T13:02:54;1.60;99.90
35668;DHT22;22158;59.280;17.806;2023-11-21T13:05:26;1.60;99.90
35668;DHT22;22158;59.280;17.806;2023-11-21T13:07:52;1.60;99.90
35668;DHT22;22158;59.280;17.806;2023-11-21T13:10:22;1.60;99.90
35668;DHT22;22158;59.280;17.806;2023-11-21T13:12:52;1.60;99.90
35668;DHT22;22158;59.280;17.806;2023-11-21T13:15:17;1.50;99.90
35668;DHT22;22158;59.280;17.806;2023-11-21T13:17:44;1.60;99.90
35668;DHT22;22158;59.280;17.806;2023-11-21T13:20:11;1.60;99.90
35668;DHT22;22158;59.280;17.806;2023-11-21T13:22:52;1.50;99.90
35668;DHT22;22158;59.280;17.806;2023-11-21T13:25:28;1.50;99.90
35668;DHT22;22158;59.280;17.806;2023-11-21T13:28:00;1.40;99.90
35668;DHT22;22158;59.280;17.806;2023-11-21T13:30:28;1.30;99.90
35668;DHT22;22158;59.280;17.806;2023-11-21T13:33:04;1.30;99.90
35668;DHT22;22158;59.280;17.806;2023-11-21T13:35:34;1.20;99.90
35668;DHT22;22158;59.280;17.806;2023-11-21T13:38:10;1.20;99.90
35668;DHT22;22158;59.280;17.806;2023-11-21T13:40:37;1.10;99.90
35668;DHT22;22158;59.280;17.806;2023-11-21T13:43:10;1.10;99.90
35668;DHT22;22158;59.280;17.806;2023-11-21T13:45:37;1.00;99.90
35668;DHT22;22158;59.280;17.806;2023-11-21T13:48:05;1.00;99.90
35668;DHT22;22158;59.280;17.806;2023-11-21T13:50:38;0.90;99.90
35668;DHT22;22158;59.280;17.806;2023-11-21T13:53:04;0.90;99.90
35668;DHT22;22158;59.280;17.806;2023-11-21T13:55:42;0.80;99.90
35668;DHT22;22158;59.280;17.806;2023-11-21T13:58:07;0.80;99.90
35668;DHT22;22158;59.280;17.806;2023-11-21T14:00:35;0.80;99.90
35668;DHT22;22158;59.280;17.806;2023-11-21T14:03:12;0.70;99.90
35668;DHT22;22158;59.280;17.806;2023-11-21T14:05:50;0.70;99.90
35668;DHT22;22158;59.280;17.806;2023-11-21T14:08:21;0.70;99.90
35668;DHT22;22158;59.280;17.806;2023-11-21T14:10:50;0.70;99.90
35668;DHT22;22158;59.280;17.806;2023-11-21T14:13:23;0.60;99.90
35668;DHT22;22158;59.280;17.806;2023-11-21T14:15:50;0.60;99.90
35668;DHT22;22158;59.280;17.806;2023-11-21T14:18:27;0.60;99.90
35668;DHT22;22158;59.280;17.806;2023-11-21T14:20:57;0.60;99.90
35668;DHT22;22158;59.280;17.806;2023-11-21T14:23:23;0.50;99.90
35668;DHT22;22158;59.280;17.806;2023-11-21T14:25:48;0.50;99.90
35668;DHT22;22158;59.280;17.806;2023-11-21T14:28:15;0.40;99.90
35668;DHT22;22158;59.280;17.806;2023-11-21T14:30:41;0.50;99.90
35668;DHT22;22158;59.280;17.806;2023-11-21T14:33:07;0.40;99.90
35668;DHT22;22158;59.280;17.806;2023-11-21T14:35:35;0.40;99.90
35668;DHT22;22158;59.280;17.806;2023-11-21T14:38:01;0.30;99.90
35668;DHT22;22158;59.280;17.806;2023-11-21T14:40:33;0.30;99.90
35668;DHT22;22158;59.280;17.806;2023-11-21T14:43:01;0.30;99.90
35668;DHT22;22158;59.280;17.806;2023-11-21T14:45:28;0.20;99.90
35668;DHT22;22158;59.280;17.806;2023-11-21T14:47:55;0.20;99.90
35668;DHT22;22158;59.280;17.806;2023-11-21T14:50:47;0.10;99.90
35668;DHT22;22158;59.280;17.806;2023-11-21T14:53:27;0.10;99.90
35668;DHT22;22158;59.280;17.806;2023-11-21T14:56:09;0.10;99.90
35668;DHT22;22158;59.280;17.806;2023-11-21T14:58:35;0.10;99.90
35668;DHT22;22158;59.280;17.806;2023-11-21T15:01:05;0.10;99.90
35668;DHT22;22158;59.280;17.806;2023-11-21T15:03:33;0.00;99.90
35668;DHT22;22158;59.280;17.806;2023-11-21T15:06:05;0.00;99.90
35668;DHT22;22158;59.280;17.806;2023-11-21T15:08:53;0.00;99.90
35668;DHT22;22158;59.280;17.806;2023-11-21T15:11:25;-0.10;99.90
35668;DHT22;22158;59.280;17.806;2023-11-21T15:13:56;-0.10;99.90
35668;DHT22;22158;59.280;17.806;2023-11-21T15:16:22;-0.10;99.90
35668;DHT22;22158;59.280;17.806;2023-11-21T15:18:47;-0.20;99.90
35668;DHT22;22158;59.280;17.806;2023-11-21T15:21:13;-0.10;99.90
35668;DHT22;22158;59.280;17.806;2023-11-21T15:23:38;-0.20;99.90
35668;DHT22;22158;59.280;17.806;2023-11-21T15:26:06;-0.20;99.90
35668;DHT22;22158;59.280;17.806;2023-11-21T15:28:34;-0.20;99.90
35668;DHT22;22158;59.280;17.806;2023-11-21T15:30:59;-0.10;99.90
35668;DHT22;22158;59.280;17.806;2023-11-21T15:33:25;-0.20;99.90
35668;DHT22;22158;59.280;17.806;2023-11-21T15:35:52;-0.30;99.90
35668;DHT22;22158;59.280;17.806;2023-11-21T15:38:19;-0.30;99.90
35668;DHT22;22158;59.280;17.806;2023-11-21T15:40:46;-0.30;99.90
35668;DHT22;22158;59.280;17.806;2023-11-21T15:43:12;-0.30;99.90
35668;DHT22;22158;59.280;17.806;2023-11-21T15:45:38;-0.30;99.90
35668;DHT22;22158;59.280;17.806;2023-11-21T15:48:05;-0.30;99.90